Time,TemperatureF,DewpointF,PressureIn,WindDirection,WindDirectionDegrees,WindSpeedMPH,WindSpeedGustMPH,Humidity,HourlyPrecipIn,Conditions,Clouds,dailyrainin,SoftwareType,DateUTC
2013-09-05 00:00:00,58.8,55.2,30.24,SE,135,0.0,1.8,88,0.00,,,0.00,WUHU21636XXSP,2013-09-04 22:00:00,
2013-09-05 00:05:00,58.8,55.2,30.24,SE,135,0.0,0.9,88,0.00,,,0.00,WUHU21636XXSP,2013-09-04 22:05:00,
2013-09-05 00:10:00,58.8,55.3,30.23,SE,135,0.0,2.0,88,0.00,CLR,,0.00,WeatherDisplay:10.37,2013-09-04 22:10:00,
2013-09-05 00:15:00,58.6,55.3,30.24,ESE,113,0.0,0.0,89,0.00,,,0.00,WUHU21636XXSP,2013-09-04 22:15:00,
2013-09-05 00:20:00,58.6,55.3,30.24,SE,135,0.4,0.4,89,0.00,,,0.00,WUHU21636XXSP,2013-09-04 22:20:00,
2013-09-05 00:25:00,58.3,55.0,30.24,SE,135,1.8,1.8,89,0.00,,,0.00,WUHU21636XXSP,2013-09-04 22:25:00,
2013-09-05 00:30:00,58.3,55.0,30.24,SE,135,0.0,1.8,89,0.00,,,0.00,WUHU21636XXSP,2013-09-04 22:30:00,
2013-09-05 00:35:00,58.1,54.8,30.23,SE,135,0.9,1.8,89,0.00,,,0.00,WUHU21636XXSP,2013-09-04 22:35:00,
2013-09-05 00:40:00,58.1,54.8,30.23,SE,135,0.0,0.9,89,0.00,,,0.00,WUHU21636XXSP,2013-09-04 22:40:00,
2013-09-05 00:45:00,57.9,54.7,30.24,SE,135,0.0,0.9,89,0.00,,,0.00,WUHU21636XXSP,2013-09-04 22:45:00,
2013-09-05 00:50:00,57.9,54.7,30.23,SE,135,0.0,0.0,89,0.00,,,0.00,WUHU21636XXSP,2013-09-04 22:50:00,
2013-09-05 00:55:00,57.7,54.5,30.23,SE,135,0.0,0.0,89,0.00,,,0.00,WUHU21636XXSP,2013-09-04 22:55:00,
2013-09-05 01:00:00,57.7,54.5,30.24,SE,135,0.0,0.0,89,0.00,,,0.00,WUHU21636XXSP,2013-09-04 23:00:00,
2013-09-05 01:05:00,57.7,54.5,30.24,SE,135,0.0,0.0,89,0.00,,,0.00,WUHU21636XXSP,2013-09-04 23:05:00,
2013-09-05 01:10:00,57.6,54.7,30.23,SE,135,0.4,0.4,90,0.00,,,0.00,WUHU21636XXSP,2013-09-04 23:10:00,
2013-09-05 01:15:00,57.6,54.7,30.23,SE,135,0.0,0.4,90,0.00,,,0.00,WUHU21636XXSP,2013-09-04 23:15:00,
2013-09-05 01:20:00,57.4,54.5,30.23,SE,135,0.0,0.4,90,0.00,,,0.00,WUHU21636XXSP,2013-09-04 23:20:00,
2013-09-05 01:25:00,57.4,54.5,30.23,SE,135,0.0,0.0,90,0.00,,,0.00,WUHU21636XXSP,2013-09-04 23:25:00,
2013-09-05 01:30:00,57.0,54.1,30.23,SE,135,0.0,0.0,90,0.00,,,0.00,WUHU21636XXSP,2013-09-04 23:30:00,
2013-09-05 01:35:00,57.0,54.1,30.23,ESE,113,0.0,0.0,90,0.00,,,0.00,WUHU21636XXSP,2013-09-04 23:35:00,
2013-09-05 01:40:00,56.8,53.9,30.23,ESE,113,0.0,0.0,90,0.00,,,0.00,WUHU21636XXSP,2013-09-04 23:40:00,
2013-09-05 01:45:00,56.8,53.9,30.23,SE,135,0.0,0.0,90,0.00,,,0.00,WUHU21636XXSP,2013-09-04 23:45:00,
2013-09-05 01:50:00,56.7,53.8,30.23,SE,135,0.0,0.0,90,0.00,,,0.00,WUHU21636XXSP,2013-09-04 23:50:00,
2013-09-05 01:55:00,56.5,53.6,30.23,SE,135,0.4,0.4,90,0.00,,,0.00,WUHU21636XXSP,2013-09-04 23:55:00,
2013-09-05 02:00:00,56.5,53.9,30.23,SE,135,0.0,0.4,91,0.00,,,0.00,WUHU21636XXSP,2013-09-05 00:00:00,
2013-09-05 02:05:00,56.3,53.7,30.23,SE,135,1.1,1.1,91,0.00,,,0.00,WUHU21636XXSP,2013-09-05 00:05:00,
2013-09-05 02:10:00,56.3,53.7,30.23,SE,135,0.0,1.1,91,0.00,,,0.00,WUHU21636XXSP,2013-09-05 00:10:00,
2013-09-05 02:15:00,56.1,53.5,30.22,SE,135,0.0,1.1,91,0.00,,,0.00,WUHU21636XXSP,2013-09-05 00:15:00,
2013-09-05 02:20:00,56.1,53.5,30.22,SE,135,0.0,0.0,91,0.00,,,0.00,WUHU21636XXSP,2013-09-05 00:20:00,
2013-09-05 02:25:00,55.9,53.3,30.22,SE,135,0.0,0.0,91,0.00,,,0.00,WUHU21636XXSP,2013-09-05 00:25:00,
2013-09-05 02:30:00,55.9,53.3,30.22,SE,135,0.7,0.7,91,0.00,,,0.00,WUHU21636XXSP,2013-09-05 00:30:00,
2013-09-05 02:35:00,55.8,52.9,30.22,SE,135,0.0,0.7,90,0.00,,,0.00,WUHU21636XXSP,2013-09-05 00:35:00,
2013-09-05 02:40:00,55.8,53.2,30.22,SE,135,0.0,0.7,91,0.00,,,0.00,WUHU21636XXSP,2013-09-05 00:40:00,
2013-09-05 02:45:00,55.6,53.0,30.23,SE,135,0.0,0.0,91,0.00,,,0.00,WUHU21636XXSP,2013-09-05 00:45:00,
2013-09-05 02:50:00,55.6,53.0,30.22,SE,135,0.0,0.0,91,0.00,,,0.00,WUHU21636XXSP,2013-09-05 00:50:00,
2013-09-05 02:55:00,55.6,53.0,30.22,SSE,158,0.0,0.0,91,0.00,,,0.00,WUHU21636XXSP,2013-09-05 00:55:00,
2013-09-05 03:00:00,55.6,53.0,30.22,SE,135,2.0,2.0,91,0.00,,,0.00,WUHU21636XXSP,2013-09-05 01:00:00,
2013-09-05 03:05:00,55.4,52.8,30.22,SE,135,0.0,2.0,91,0.00,,,0.00,WUHU21636XXSP,2013-09-05 01:05:00,
2013-09-05 03:10:00,55.4,52.8,30.22,SE,135,0.0,2.0,91,0.00,,,0.00,WUHU21636XXSP,2013-09-05 01:10:00,
2013-09-05 03:15:00,55.2,52.6,30.22,SE,135,0.0,0.0,91,0.00,,,0.00,WUHU21636XXSP,2013-09-05 01:15:00,
2013-09-05 03:20:00,55.2,52.6,30.22,SE,135,0.0,0.0,91,0.00,,,0.00,WUHU21636XXSP,2013-09-05 01:20:00,
2013-09-05 03:25:00,55.2,52.6,30.22,SE,135,0.0,0.0,91,0.00,,,0.00,WUHU21636XXSP,2013-09-05 01:25:00,
2013-09-05 03:30:00,55.0,52.4,30.22,SE,135,0.0,0.0,91,0.00,,,0.00,WUHU21636XXSP,2013-09-05 01:30:00,
2013-09-05 03:35:00,55.0,52.4,30.22,SE,135,0.0,0.0,91,0.00,,,0.00,WUHU21636XXSP,2013-09-05 01:35:00,
2013-09-05 03:40:00,54.7,52.1,30.22,SE,135,0.0,0.0,91,0.00,,,0.00,WUHU21636XXSP,2013-09-05 01:40:00,
2013-09-05 03:45:00,54.7,52.1,30.22,SE,135,0.0,0.0,91,0.00,,,0.00,WUHU21636XXSP,2013-09-05 01:45:00,
2013-09-05 03:50:00,54.7,52.1,30.22,SE,135,0.0,0.0,91,0.00,,,0.00,WUHU21636XXSP,2013-09-05 01:50:00,
2013-09-05 03:55:00,54.5,51.9,30.22,SE,135,0.0,0.0,91,0.00,,,0.00,WUHU21636XXSP,2013-09-05 01:55:00,
2013-09-05 04:00:00,54.5,52.2,30.22,SE,135,0.0,0.0,92,0.00,,,0.00,WUHU21636XXSP,2013-09-05 02:00:00,
2013-09-05 04:05:00,54.3,52.0,30.22,SE,135,0.0,0.0,92,0.00,,,0.00,WUHU21636XXSP,2013-09-05 02:05:00,
2013-09-05 04:10:00,54.3,52.0,30.22,SE,135,0.0,0.0,92,0.00,,,0.00,WUHU21636XXSP,2013-09-05 02:10:00,
2013-09-05 04:15:00,54.3,52.0,30.22,SE,135,0.0,0.0,92,0.00,,,0.00,WUHU21636XXSP,2013-09-05 02:15:00,
2013-09-05 04:20:00,54.1,51.8,30.22,SE,135,0.0,0.0,92,0.00,,,0.00,WUHU21636XXSP,2013-09-05 02:20:00,
2013-09-05 04:25:00,54.1,51.8,30.21,SE,135,0.0,0.0,92,0.00,,,0.00,WUHU21636XXSP,2013-09-05 02:25:00,
2013-09-05 04:30:00,54.1,51.8,30.21,SE,135,0.0,0.0,92,0.00,,,0.00,WUHU21636XXSP,2013-09-05 02:30:00,
2013-09-05 04:35:00,54.1,51.8,30.21,SE,135,0.0,0.0,92,0.00,,,0.00,WUHU21636XXSP,2013-09-05 02:35:00,
2013-09-05 04:40:00,54.0,51.7,30.21,SE,135,0.9,0.9,92,0.00,,,0.00,WUHU21636XXSP,2013-09-05 02:40:00,
2013-09-05 04:45:00,54.0,51.7,30.21,SE,135,0.0,0.9,92,0.00,,,0.00,WUHU21636XXSP,2013-09-05 02:45:00,
2013-09-05 04:50:00,53.8,51.5,30.21,SE,135,1.3,1.3,92,0.00,,,0.00,WUHU21636XXSP,2013-09-05 02:50:00,
2013-09-05 04:55:00,53.8,51.5,30.21,SE,135,0.0,1.3,92,0.00,,,0.00,WUHU21636XXSP,2013-09-05 02:55:00,
2013-09-05 05:00:00,53.6,51.3,30.21,SE,135,0.0,1.3,92,0.00,,,0.00,WUHU21636XXSP,2013-09-05 03:00:00,
2013-09-05 05:05:00,53.4,51.1,30.21,SE,135,1.8,1.8,92,0.00,,,0.00,WUHU21636XXSP,2013-09-05 03:05:00,
2013-09-05 05:10:00,53.4,51.1,30.21,SE,135,0.0,1.8,92,0.00,,,0.00,WUHU21636XXSP,2013-09-05 03:10:00,
2013-09-05 05:15:00,53.4,51.1,30.21,SE,135,0.0,1.8,92,0.00,,,0.00,WUHU21636XXSP,2013-09-05 03:15:00,
2013-09-05 05:20:00,53.4,51.1,30.21,SE,135,0.0,0.0,92,0.00,,,0.00,WUHU21636XXSP,2013-09-05 03:20:00,
2013-09-05 05:25:00,53.4,51.1,30.21,SE,135,0.4,0.4,92,0.00,,,0.00,WUHU21636XXSP,2013-09-05 03:25:00,
2013-09-05 05:30:00,53.4,51.1,30.21,SSE,158,0.0,0.4,92,0.00,,,0.00,WUHU21636XXSP,2013-09-05 03:30:00,
2013-09-05 05:35:00,53.4,51.1,30.21,SSW,203,0.0,0.4,92,0.00,,,0.00,WUHU21636XXSP,2013-09-05 03:35:00,
2013-09-05 05:40:00,53.6,51.3,30.21,SE,135,0.0,0.0,92,0.00,,,0.00,WUHU21636XXSP,2013-09-05 03:40:00,
2013-09-05 05:45:00,53.6,51.3,30.20,NW,315,0.0,0.0,92,0.00,,,0.00,WUHU21636XXSP,2013-09-05 03:45:00,
2013-09-05 05:50:00,53.8,51.5,30.20,NW,315,0.0,0.0,92,0.00,,,0.00,WUHU21636XXSP,2013-09-05 03:50:00,
2013-09-05 05:55:00,53.8,51.5,30.20,SE,135,0.0,0.0,92,0.00,,,0.00,WUHU21636XXSP,2013-09-05 03:55:00,
2013-09-05 06:00:00,53.8,51.5,30.20,SE,135,0.0,0.0,92,0.00,,,0.00,WUHU21636XXSP,2013-09-05 04:00:00,
2013-09-05 06:05:00,53.8,51.8,30.20,SE,135,0.0,0.0,93,0.00,,,0.00,WUHU21636XXSP,2013-09-05 04:05:00,
2013-09-05 06:10:00,54.0,52.0,30.20,SE,135,0.0,0.0,93,0.00,,,0.00,WUHU21636XXSP,2013-09-05 04:10:00,
2013-09-05 06:15:00,54.0,52.0,30.20,SE,135,0.0,0.0,93,0.00,,,0.00,WUHU21636XXSP,2013-09-05 04:15:00,
2013-09-05 06:20:00,54.0,52.0,30.20,SE,135,0.7,0.7,93,0.00,,,0.00,WUHU21636XXSP,2013-09-05 04:20:00,
2013-09-05 06:25:00,54.1,52.1,30.20,SE,135,0.0,0.7,93,0.00,,,0.00,WUHU21636XXSP,2013-09-05 04:25:00,
2013-09-05 06:30:00,54.1,52.1,30.20,SE,135,0.0,0.7,93,0.00,,,0.00,WUHU21636XXSP,2013-09-05 04:30:00,
2013-09-05 06:35:00,54.1,52.1,30.20,SE,135,0.0,0.0,93,0.00,,,0.00,WUHU21636XXSP,2013-09-05 04:35:00,
2013-09-05 06:40:00,54.1,52.1,30.20,ESE,113,0.9,0.9,93,0.00,,,0.00,WUHU21636XXSP,2013-09-05 04:40:00,
2013-09-05 06:45:00,54.3,52.3,30.20,SE,135,0.0,0.9,93,0.00,,,0.00,WUHU21636XXSP,2013-09-05 04:45:00,
2013-09-05 06:50:00,54.3,52.3,30.20,SE,135,0.0,0.9,93,0.00,,,0.00,WUHU21636XXSP,2013-09-05 04:50:00,
2013-09-05 06:55:00,54.5,52.5,30.20,SE,135,0.0,0.0,93,0.00,,,0.00,WUHU21636XXSP,2013-09-05 04:55:00,
2013-09-05 07:00:00,54.5,52.5,30.20,SE,135,0.0,0.0,93,0.00,,,0.00,WUHU21636XXSP,2013-09-05 05:00:00,
2013-09-05 07:05:00,54.7,52.7,30.20,SE,135,1.1,1.1,93,0.00,,,0.00,WUHU21636XXSP,2013-09-05 05:05:00,
2013-09-05 07:10:00,54.7,52.7,30.20,SSE,158,0.0,1.1,93,0.00,,,0.00,WUHU21636XXSP,2013-09-05 05:10:00,
2013-09-05 07:15:00,54.7,52.7,30.20,SSE,158,0.0,1.1,93,0.00,,,0.00,WUHU21636XXSP,2013-09-05 05:15:00,
2013-09-05 07:20:00,55.0,53.0,30.20,SSE,158,0.0,0.0,93,0.00,,,0.00,WUHU21636XXSP,2013-09-05 05:20:00,
2013-09-05 07:25:00,55.0,53.3,30.20,SE,135,0.0,0.0,94,0.00,,,0.00,WUHU21636XXSP,2013-09-05 05:25:00,
2013-09-05 07:30:00,55.0,53.3,30.20,SE,135,0.0,0.0,94,0.00,,,0.00,WUHU21636XXSP,2013-09-05 05:30:00,
2013-09-05 07:35:00,55.2,53.5,30.19,ESE,113,1.1,1.1,94,0.00,,,0.00,WUHU21636XXSP,2013-09-05 05:35:00,
2013-09-05 07:40:00,55.2,53.5,30.20,SE,135,0.0,1.1,94,0.00,,,0.00,WUHU21636XXSP,2013-09-05 05:40:00,
2013-09-05 07:45:00,55.2,53.5,30.19,SE,135,0.0,1.1,94,0.00,,,0.00,WUHU21636XXSP,2013-09-05 05:45:00,
2013-09-05 07:50:00,55.4,53.7,30.20,SE,135,0.0,0.0,94,0.00,,,0.00,WUHU21636XXSP,2013-09-05 05:50:00,
2013-09-05 07:55:00,55.6,53.9,30.20,WNW,293,0.0,0.0,94,0.00,,,0.00,WUHU21636XXSP,2013-09-05 05:55:00,
2013-09-05 08:00:00,55.6,53.9,30.20,WNW,293,0.0,0.0,94,0.00,,,0.00,WUHU21636XXSP,2013-09-05 06:00:00,
2013-09-05 08:05:00,55.8,54.1,30.20,WNW,293,1.1,1.1,94,0.00,,,0.00,WUHU21636XXSP,2013-09-05 06:05:00,
2013-09-05 08:10:00,55.9,54.2,30.20,SE,135,0.7,1.1,94,0.00,,,0.00,WUHU21636XXSP,2013-09-05 06:10:00,
2013-09-05 08:15:00,56.1,54.4,30.20,SE,135,0.0,1.1,94,0.00,,,0.00,WUHU21636XXSP,2013-09-05 06:15:00,
2013-09-05 08:20:00,56.3,54.6,30.20,SE,135,0.0,0.7,94,0.00,,,0.00,WUHU21636XXSP,2013-09-05 06:20:00,
2013-09-05 08:25:00,56.5,54.8,30.20,SE,135,0.0,0.0,94,0.00,,,0.00,WUHU21636XXSP,2013-09-05 06:25:00,
2013-09-05 08:30:00,56.8,55.1,30.20,SE,135,0.0,0.0,94,0.00,,,0.00,WUHU21636XXSP,2013-09-05 06:30:00,
2013-09-05 08:35:00,57.0,55.3,30.20,SE,135,0.0,0.0,94,0.00,,,0.00,WUHU21636XXSP,2013-09-05 06:35:00,
2013-09-05 08:40:00,57.2,55.4,30.20,SE,135,0.0,0.0,94,0.00,,,0.00,WUHU21636XXSP,2013-09-05 06:40:00,
2013-09-05 08:45:00,57.4,55.6,30.20,SE,135,0.0,0.0,94,0.00,,,0.00,WUHU21636XXSP,2013-09-05 06:45:00,
2013-09-05 08:50:00,57.6,55.8,30.20,SE,135,0.0,0.0,94,0.00,,,0.00,WUHU21636XXSP,2013-09-05 06:50:00,
2013-09-05 08:55:00,57.7,55.9,30.20,SE,135,0.0,0.0,94,0.00,,,0.00,WUHU21636XXSP,2013-09-05 06:55:00,
2013-09-05 09:00:00,57.9,56.1,30.20,SE,135,0.0,0.0,94,0.00,,,0.00,WUHU21636XXSP,2013-09-05 07:00:00,
2013-09-05 09:05:00,58.3,56.5,30.20,WNW,293,0.0,0.0,94,0.00,,,0.00,WUHU21636XXSP,2013-09-05 07:05:00,
2013-09-05 09:10:00,58.3,56.5,30.20,ESE,113,1.8,1.8,94,0.00,,,0.00,WUHU21636XXSP,2013-09-05 07:10:00,
2013-09-05 09:15:00,58.6,56.8,30.20,SE,135,1.1,1.8,94,0.00,,,0.00,WUHU21636XXSP,2013-09-05 07:15:00,
2013-09-05 09:20:00,58.6,56.8,30.20,SE,135,0.0,1.8,94,0.00,,,0.00,WUHU21636XXSP,2013-09-05 07:20:00,
2013-09-05 09:25:00,58.6,56.8,30.20,SE,135,1.6,1.6,94,0.00,,,0.00,WUHU21636XXSP,2013-09-05 07:25:00,
2013-09-05 09:30:00,58.8,57.0,30.20,SE,135,0.0,1.6,94,0.00,,,0.00,WUHU21636XXSP,2013-09-05 07:30:00,
2013-09-05 09:35:00,58.8,57.0,30.20,SE,135,0.7,1.6,94,0.00,,,0.00,WUHU21636XXSP,2013-09-05 07:35:00,
2013-09-05 09:40:00,59.2,57.4,30.20,SE,135,0.0,0.7,94,0.00,,,0.00,WUHU21636XXSP,2013-09-05 07:40:00,
2013-09-05 09:45:00,59.5,57.7,30.20,WNW,293,0.0,0.7,94,0.00,,,0.00,WUHU21636XXSP,2013-09-05 07:45:00,
2013-09-05 09:50:00,59.7,57.9,30.20,SE,135,1.6,1.6,94,0.00,,,0.00,WUHU21636XXSP,2013-09-05 07:50:00,
2013-09-05 09:55:00,59.9,58.1,30.20,SE,135,1.8,1.8,94,0.00,,,0.00,WUHU21636XXSP,2013-09-05 07:55:00,
2013-09-05 10:00:00,60.1,58.3,30.20,SE,135,0.0,1.8,94,0.00,,,0.00,WUHU21636XXSP,2013-09-05 08:00:00,
2013-09-05 10:05:00,60.6,57.9,30.20,SE,135,0.0,1.8,91,0.00,,,0.00,WUHU21636XXSP,2013-09-05 08:05:00,
2013-09-05 10:10:00,61.2,57.9,30.20,SE,135,1.3,1.3,89,0.00,,,0.00,WUHU21636XXSP,2013-09-05 08:10:00,
2013-09-05 10:15:00,61.3,57.7,30.20,ESE,113,2.0,2.0,88,0.00,,,0.00,WUHU21636XXSP,2013-09-05 08:15:00,
2013-09-05 10:20:00,61.9,58.0,30.19,ESE,113,1.8,2.0,87,0.00,,,0.00,WUHU21636XXSP,2013-09-05 08:20:00,
2013-09-05 10:25:00,62.4,58.5,30.19,SE,135,0.0,2.0,87,0.00,,,0.00,WUHU21636XXSP,2013-09-05 08:25:00,
2013-09-05 10:30:00,63.0,58.7,30.19,SE,135,2.2,2.2,86,0.00,,,0.00,WUHU21636XXSP,2013-09-05 08:30:00,
2013-09-05 10:43:00,64.2,58.8,30.19,ESE,112,0.0,0.4,83,0.00,,,0.00,WUHU21636XXSP,2013-09-05 08:43:00,
2013-09-05 10:48:00,65.5,60.1,30.19,ESE,112,0.0,0.4,83,0.00,,,0.00,WUHU21636XXSP,2013-09-05 08:48:00,
2013-09-05 10:53:00,66.4,60.1,30.19,NNE,22,0.0,0.0,80,0.00,,,0.00,WUHU21636XXSP,2013-09-05 08:53:00,
2013-09-05 10:58:00,66.9,60.6,30.19,ESE,112,0.0,1.8,80,0.00,,,0.00,WUHU21636XXSP,2013-09-05 08:58:00,
2013-09-05 11:03:00,67.6,60.8,30.18,ESE,112,0.0,1.8,79,0.00,,,0.00,WUHU21636XXSP,2013-09-05 09:03:00,
2013-09-05 11:08:00,67.8,59.9,30.18,NW,315,1.6,2.0,77,0.00,,,0.00,WUHU21636XXSP,2013-09-05 09:08:00,
2013-09-05 11:13:00,68.4,60.4,30.18,NW,315,0.0,2.0,76,0.00,,,0.00,WUHU21636XXSP,2013-09-05 09:13:00,
2013-09-05 11:18:00,68.7,61.2,30.18,SE,135,0.0,1.6,77,0.00,,,0.00,WUHU21636XXSP,2013-09-05 09:18:00,
2013-09-05 11:25:00,69.6,61.1,30.18,SE,135,1.3,1.3,74,0.00,,,0.00,WUHU21636XXSP,2013-09-05 09:25:00,
2013-09-05 11:30:00,70.0,61.5,30.18,NE,45,0.9,1.3,74,0.00,,,0.00,WUHU21636XXSP,2013-09-05 09:30:00,
2013-09-05 11:35:00,70.2,61.3,30.18,SE,135,0.0,1.3,73,0.00,,,0.00,WUHU21636XXSP,2013-09-05 09:35:00,
2013-09-05 11:40:00,71.1,62.0,30.17,ESE,108,0.0,1.0,73,0.00,FEW,,0.00,WeatherDisplay:10.37,2013-09-05 09:40:00,
2013-09-05 11:45:00,71.6,61.9,30.17,SSW,203,0.9,0.9,71,0.00,,,0.00,WUHU21636XXSP,2013-09-05 09:45:00,
2013-09-05 11:50:00,71.6,61.7,30.17,South,171,1.0,1.0,71,0.00,FEW,,0.00,WeatherDisplay:10.37,2013-09-05 09:50:00,
2013-09-05 11:55:00,72.3,62.2,30.17,SSE,158,0.0,0.9,70,0.00,,,0.00,WUHU21636XXSP,2013-09-05 09:55:00,
2013-09-05 12:00:00,72.3,60.7,30.16,South,169,0.0,0.0,67,0.00,FEW,,0.00,WeatherDisplay:10.37,2013-09-05 10:00:00,
2013-09-05 12:05:00,73.0,62.4,30.17,West,270,0.7,0.7,69,0.00,,,0.00,WUHU21636XXSP,2013-09-05 10:05:00,
2013-09-05 12:10:00,73.6,61.5,30.16,SSE,167,2.0,3.0,66,0.00,FEW,,0.00,WeatherDisplay:10.37,2013-09-05 10:10:00,
2013-09-05 12:15:00,73.6,62.2,30.16,ESE,113,0.0,2.7,67,0.00,,,0.00,WUHU21636XXSP,2013-09-05 10:15:00,
2013-09-05 12:20:00,73.6,61.9,30.16,SE,128,0.0,3.0,67,0.00,FEW,,0.00,WeatherDisplay:10.37,2013-09-05 10:20:00,
2013-09-05 12:25:00,74.8,62.9,30.16,SW,225,0.0,0.9,66,0.00,,,0.00,WUHU21636XXSP,2013-09-05 10:25:00,
2013-09-05 12:30:00,74.8,61.8,30.15,SSW,205,1.0,1.0,64,0.00,FEW,,0.00,WeatherDisplay:10.37,2013-09-05 10:30:00,
2013-09-05 12:35:00,75.6,62.3,30.16,NNW,338,0.0,1.3,63,0.00,,,0.00,WUHU21636XXSP,2013-09-05 10:35:00,
2013-09-05 12:40:00,75.6,62.1,30.15,ENE,77,0.0,1.0,63,0.00,FEW,,0.00,WeatherDisplay:10.37,2013-09-05 10:40:00,
2013-09-05 12:45:00,75.9,62.6,30.16,WNW,293,1.3,4.0,63,0.00,,,0.00,WUHU21636XXSP,2013-09-05 10:45:00,
2013-09-05 12:50:00,75.7,62.2,30.15,NW,309,0.0,4.0,63,0.00,SCT,,0.00,WeatherDisplay:10.37,2013-09-05 10:50:00,
2013-09-05 12:55:00,77.5,63.7,30.16,ESE,113,0.4,1.3,62,0.00,,,0.00,WUHU21636XXSP,2013-09-05 10:55:00,
2013-09-05 13:00:00,78.4,62.4,30.15,ESE,108,1.0,2.0,58,0.00,SCT,,0.00,WeatherDisplay:10.37,2013-09-05 11:00:00,
2013-09-05 13:05:00,77.5,62.3,30.15,ESE,113,0.4,1.6,59,0.00,,,0.00,WUHU21636XXSP,2013-09-05 11:05:00,
2013-09-05 13:10:00,77.5,62.3,30.15,ESE,113,0.0,1.6,59,0.00,,,0.00,WUHU21636XXSP,2013-09-05 11:10:00,
2013-09-05 13:11:00,77.5,62.1,30.14,East,97,0.0,2.0,59,0.00,SCT,,0.00,WeatherDisplay:10.37,2013-09-05 11:11:00,
2013-09-05 13:15:00,77.4,61.2,30.15,ESE,113,1.6,1.6,57,0.00,,,0.00,WUHU21636XXSP,2013-09-05 11:15:00,
2013-09-05 13:20:00,77.7,60.9,30.15,SE,135,0.0,1.6,56,0.00,,,0.00,WUHU21636XXSP,2013-09-05 11:20:00,
2013-09-05 13:25:00,77.9,61.1,30.15,SE,135,0.4,1.6,56,0.00,,,0.00,WUHU21636XXSP,2013-09-05 11:25:00,
2013-09-05 13:30:00,77.7,60.9,30.15,ESE,113,0.0,0.4,56,0.00,,,0.00,WUHU21636XXSP,2013-09-05 11:30:00,
2013-09-05 13:31:00,77.7,60.8,30.14,SE,128,0.0,2.0,56,0.00,SCT,,0.00,WeatherDisplay:10.37,2013-09-05 11:31:00,
2013-09-05 13:35:00,77.4,60.7,30.15,ESE,113,0.0,0.4,56,0.00,,,0.00,WUHU21636XXSP,2013-09-05 11:35:00,
2013-09-05 13:40:00,78.4,60.9,30.14,ESE,115,0.0,0.0,55,0.00,SCT,,0.00,WeatherDisplay:10.37,2013-09-05 11:40:00,
2013-09-05 13:45:00,79.0,60.6,30.14,ESE,113,2.2,2.2,53,0.00,,,0.00,WUHU21636XXSP,2013-09-05 11:45:00,
2013-09-05 13:50:00,79.0,60.4,30.13,ESE,112,2.0,2.0,53,0.00,SCT,,0.00,WeatherDisplay:10.37,2013-09-05 11:50:00,
2013-09-05 13:55:00,79.2,60.2,30.14,ESE,113,0.0,3.4,52,0.00,,,0.00,WUHU21636XXSP,2013-09-05 11:55:00,
2013-09-05 14:00:00,79.2,60.0,30.13,ESE,112,0.0,3.0,52,0.00,SCT,,0.00,WeatherDisplay:10.37,2013-09-05 12:00:00,
2013-09-05 14:05:00,77.4,59.1,30.14,SE,135,1.6,1.6,53,0.00,,,0.00,WUHU21636XXSP,2013-09-05 12:05:00,
2013-09-05 14:10:00,76.1,58.8,30.13,SE,133,1.0,2.0,55,0.00,SCT,,0.00,WeatherDisplay:10.37,2013-09-05 12:10:00,
2013-09-05 14:15:00,75.9,59.8,30.14,SE,135,0.0,1.6,57,0.00,,,0.00,WUHU21636XXSP,2013-09-05 12:15:00,
2013-09-05 14:20:00,75.9,59.6,30.13,SE,135,0.0,1.0,57,0.00,SCT,,0.00,WeatherDisplay:10.37,2013-09-05 12:20:00,
2013-09-05 14:25:00,79.5,61.0,30.13,WNW,293,0.9,0.9,53,0.00,,,0.00,WUHU21636XXSP,2013-09-05 12:25:00,
2013-09-05 14:30:00,80.8,60.4,30.12,WSW,242,1.0,2.0,50,0.00,SCT,,0.00,WeatherDisplay:10.37,2013-09-05 12:30:00,
2013-09-05 14:35:00,81.1,60.2,30.13,WSW,248,1.3,1.6,49,0.00,,,0.00,WUHU21636XXSP,2013-09-05 12:35:00,
2013-09-05 14:40:00,82.0,60.5,30.13,South,180,1.1,1.6,48,0.00,,,0.00,WUHU21636XXSP,2013-09-05 12:40:00,
2013-09-05 14:41:00,82.0,60.4,30.12,SSW,212,1.0,2.0,48,0.00,SCT,,0.00,WeatherDisplay:10.37,2013-09-05 12:41:00,
2013-09-05 14:45:00,82.0,60.5,30.13,WNW,293,0.0,1.3,48,0.00,,,0.00,WUHU21636XXSP,2013-09-05 12:45:00,
2013-09-05 14:50:00,82.0,60.4,30.12,WSW,241,0.0,1.0,48,0.00,SCT,,0.00,WeatherDisplay:10.37,2013-09-05 12:50:00,
2013-09-05 14:55:00,82.0,59.2,30.13,SE,135,2.2,3.4,46,0.00,,,0.00,WUHU21636XXSP,2013-09-05 12:55:00,
2013-09-05 15:00:00,80.8,58.8,30.13,SE,135,1.1,3.4,47,0.00,,,0.00,WUHU21636XXSP,2013-09-05 13:00:00,
2013-09-05 15:05:00,78.6,57.3,30.13,ESE,113,3.4,3.4,48,0.00,,,0.00,WUHU21636XXSP,2013-09-05 13:05:00,
2013-09-05 15:10:00,78.6,57.3,30.12,SE,125,3.0,3.0,48,0.00,SCT,,0.00,WeatherDisplay:10.37,2013-09-05 13:10:00,
2013-09-05 15:15:00,79.9,59.7,30.12,ESE,113,0.0,3.4,50,0.00,,,0.00,WUHU21636XXSP,2013-09-05 13:15:00,
2013-09-05 15:20:00,79.9,59.6,30.11,ESE,112,0.0,1.0,50,0.00,SCT,,0.00,WeatherDisplay:10.37,2013-09-05 13:20:00,
2013-09-05 15:25:00,81.1,59.6,30.12,ESE,113,0.4,0.4,48,0.00,,,0.00,WUHU21636XXSP,2013-09-05 13:25:00,
2013-09-05 15:30:00,81.1,59.6,30.11,ESE,112,0.0,0.0,48,0.00,SCT,,0.00,WeatherDisplay:10.37,2013-09-05 13:30:00,
2013-09-05 15:35:00,81.7,59.6,30.11,ESE,113,0.0,1.3,47,0.00,,,0.00,WUHU21636XXSP,2013-09-05 13:35:00,
2013-09-05 15:40:00,81.7,59.6,30.11,ESE,113,1.3,1.3,47,0.00,,,0.00,WUHU21636XXSP,2013-09-05 13:40:00,
2013-09-05 15:41:00,81.7,59.5,30.11,ESE,112,1.0,1.0,47,0.00,SCT,,0.00,WeatherDisplay:10.37,2013-09-05 13:41:00,
2013-09-05 15:45:00,81.7,58.3,30.11,WNW,293,0.0,1.3,45,0.00,,,0.00,WUHU21636XXSP,2013-09-05 13:45:00,
2013-09-05 15:50:00,82.0,59.2,30.10,WSW,257,1.0,1.0,46,0.00,SCT,,0.00,WeatherDisplay:10.37,2013-09-05 13:50:00,
2013-09-05 15:55:00,81.3,59.8,30.11,WSW,248,0.9,1.3,48,0.00,,,0.00,WUHU21636XXSP,2013-09-05 13:55:00,
2013-09-05 16:00:00,81.3,59.8,30.10,WSW,248,1.0,1.0,48,0.00,SCT,,0.00,WeatherDisplay:10.37,2013-09-05 14:00:00,
2013-09-05 16:05:00,82.0,59.9,30.11,ESE,113,0.7,3.4,47,0.00,,,0.00,WUHU21636XXSP,2013-09-05 14:05:00,
2013-09-05 16:10:00,82.2,60.0,30.10,WNW,295,2.0,3.0,47,0.00,SCT,,0.00,WeatherDisplay:10.37,2013-09-05 14:10:00,
2013-09-05 16:15:00,82.4,59.6,30.11,ESE,113,1.6,2.0,46,0.00,,,0.00,WUHU21636XXSP,2013-09-05 14:15:00,
2013-09-05 16:20:00,82.2,58.8,30.11,ESE,113,0.0,2.0,45,0.00,,,0.00,WUHU21636XXSP,2013-09-05 14:20:00,
2013-09-05 16:21:00,82.2,58.8,30.10,NE,48,0.0,2.0,45,0.00,SCT,,0.00,WeatherDisplay:10.37,2013-09-05 14:21:00,
2013-09-05 16:25:00,81.9,59.1,30.11,ESE,113,0.9,1.6,46,0.00,,,0.00,WUHU21636XXSP,2013-09-05 14:25:00,
2013-09-05 16:30:00,82.8,59.9,30.09,ESE,110,0.0,1.0,46,0.00,SCT,,0.00,WeatherDisplay:10.37,2013-09-05 14:30:00,
2013-09-05 16:35:00,83.8,59.6,30.11,ESE,113,0.0,0.9,44,0.00,,,0.00,WUHU21636XXSP,2013-09-05 14:35:00,
2013-09-05 16:40:00,83.1,59.6,30.10,WNW,293,0.0,0.0,45,0.00,,,0.00,WUHU21636XXSP,2013-09-05 14:40:00,
2013-09-05 16:45:00,82.2,58.8,30.10,East,90,0.9,0.9,45,0.00,,,0.00,WUHU21636XXSP,2013-09-05 14:45:00,
2013-09-05 16:50:00,82.8,58.6,30.09,ENE,69,1.0,2.0,44,0.00,FEW,,0.00,WeatherDisplay:10.37,2013-09-05 14:50:00,
2013-09-05 16:55:00,81.5,58.1,30.10,ESE,113,1.1,1.6,45,0.00,,,0.00,WUHU21636XXSP,2013-09-05 14:55:00,
2013-09-05 17:00:00,82.0,59.2,30.10,ESE,113,0.0,1.6,46,0.00,,,0.00,WUHU21636XXSP,2013-09-05 15:00:00,
2013-09-05 17:05:00,82.0,58.6,30.10,ESE,113,0.0,1.1,45,0.00,,,0.00,WUHU21636XXSP,2013-09-05 15:05:00,
2013-09-05 17:10:00,82.0,58.6,30.09,ESE,112,0.0,2.0,45,0.00,FEW,,0.00,WeatherDisplay:10.37,2013-09-05 15:10:00,
2013-09-05 17:15:00,81.3,58.6,30.09,ESE,113,2.0,2.0,46,0.00,,,0.00,WUHU21636XXSP,2013-09-05 15:15:00,
2013-09-05 17:20:00,81.3,59.2,30.08,ESE,112,0.0,2.0,47,0.00,FEW,,0.00,WeatherDisplay:10.37,2013-09-05 15:20:00,
2013-09-05 17:25:00,81.3,59.2,30.09,ESE,113,0.0,2.0,47,0.00,,,0.00,WUHU21636XXSP,2013-09-05 15:25:00,
2013-09-05 17:30:00,81.1,59.0,30.08,ESE,114,0.0,0.0,47,0.00,FEW,,0.00,WeatherDisplay:10.37,2013-09-05 15:30:00,
2013-09-05 17:35:00,81.3,58.6,30.09,SE,135,0.0,0.0,46,0.00,,,0.00,WUHU21636XXSP,2013-09-05 15:35:00,
2013-09-05 17:40:00,81.5,58.7,30.08,SE,135,0.0,0.0,46,0.00,FEW,,0.00,WeatherDisplay:10.37,2013-09-05 15:40:00,
2013-09-05 17:45:00,81.5,58.8,30.09,SE,135,1.1,1.1,46,0.00,,,0.00,WUHU21636XXSP,2013-09-05 15:45:00,
2013-09-05 17:50:00,81.1,58.4,30.07,SE,135,1.0,1.0,46,0.00,FEW,,0.00,WeatherDisplay:10.37,2013-09-05 15:50:00,
2013-09-05 17:55:00,80.2,58.2,30.08,ESE,113,2.9,2.9,47,0.00,,,0.00,WUHU21636XXSP,2013-09-05 15:55:00,
2013-09-05 18:00:00,80.2,57.6,30.07,ESE,117,3.0,4.0,46,0.00,FEW,,0.00,WeatherDisplay:10.37,2013-09-05 16:00:00,
2013-09-05 18:05:00,79.7,58.3,30.08,SE,135,0.0,4.0,48,0.00,,,0.00,WUHU21636XXSP,2013-09-05 16:05:00,
2013-09-05 18:10:00,79.5,58.1,30.07,ESE,117,1.0,4.0,48,0.00,FEW,,0.00,WeatherDisplay:10.37,2013-09-05 16:10:00,
2013-09-05 18:15:00,80.1,58.7,30.08,ESE,113,0.0,1.1,48,0.00,,,0.00,WUHU21636XXSP,2013-09-05 16:15:00,
2013-09-05 18:20:00,79.5,57.6,30.08,SE,135,0.7,1.1,47,0.00,,,0.00,WUHU21636XXSP,2013-09-05 16:20:00,
2013-09-05 18:21:00,79.5,57.5,30.07,SE,128,1.0,1.0,47,0.00,FEW,,0.00,WeatherDisplay:10.37,2013-09-05 16:21:00,
2013-09-05 18:25:00,79.3,58.0,30.07,SSE,158,0.0,0.7,48,0.00,,,0.00,WUHU21636XXSP,2013-09-05 16:25:00,
2013-09-05 18:30:00,78.1,57.9,30.07,SSE,149,0.0,1.0,50,0.00,FEW,,0.00,WeatherDisplay:10.37,2013-09-05 16:30:00,
2013-09-05 18:35:00,77.9,57.9,30.08,ESE,113,1.1,1.1,50,0.00,,,0.00,WUHU21636XXSP,2013-09-05 16:35:00,
2013-09-05 18:40:00,77.7,58.2,30.08,ESE,113,0.4,1.1,51,0.00,,,0.00,WUHU21636XXSP,2013-09-05 16:40:00,
2013-09-05 18:45:00,77.9,57.9,30.08,ESE,113,2.0,2.0,50,0.00,,,0.00,WUHU21636XXSP,2013-09-05 16:45:00,
2013-09-05 18:50:00,77.9,57.8,30.07,ESE,112,2.0,2.0,50,0.00,CLR,,0.00,WeatherDisplay:10.37,2013-09-05 16:50:00,
2013-09-05 18:55:00,77.5,58.1,30.08,ESE,113,2.0,2.0,51,0.00,,,0.00,WUHU21636XXSP,2013-09-05 16:55:00,
2013-09-05 19:00:00,76.8,57.9,30.07,ESE,106,0.0,2.0,52,0.00,CLR,,0.00,WeatherDisplay:10.37,2013-09-05 17:00:00,
2013-09-05 19:05:00,76.8,58.5,30.08,ESE,113,0.0,2.0,53,0.00,,,0.00,WUHU21636XXSP,2013-09-05 17:05:00,
2013-09-05 19:10:00,76.3,57.9,30.07,ESE,114,0.0,0.0,53,0.00,CLR,,0.00,WeatherDisplay:10.37,2013-09-05 17:10:00,
2013-09-05 19:15:00,75.7,57.5,30.07,ESE,113,0.0,0.0,53,0.00,,,0.00,WUHU21636XXSP,2013-09-05 17:15:00,
2013-09-05 19:20:00,74.7,58.6,30.08,SE,135,0.0,0.0,57,0.00,,,0.00,WUHU21636XXSP,2013-09-05 17:20:00,
2013-09-05 19:21:00,75.7,57.4,30.06,SE,126,0.0,0.0,53,0.00,CLR,,0.00,WeatherDisplay:10.37,2013-09-05 17:21:00,
2013-09-05 19:25:00,74.1,58.6,30.07,SE,135,0.0,0.0,58,0.00,,,0.00,WUHU21636XXSP,2013-09-05 17:25:00,
2013-09-05 19:30:00,73.8,58.3,30.07,ESE,113,0.0,0.0,58,0.00,,,0.00,WUHU21636XXSP,2013-09-05 17:30:00,
2013-09-05 19:31:00,73.8,58.1,30.06,SE,128,0.0,0.0,58,0.00,CLR,,0.00,WeatherDisplay:10.37,2013-09-05 17:31:00,
2013-09-05 19:35:00,73.6,58.6,30.07,ESE,113,0.0,0.0,59,0.00,,,0.00,WUHU21636XXSP,2013-09-05 17:35:00,
2013-09-05 19:40:00,73.2,58.2,30.07,ESE,113,0.0,0.0,59,0.00,,,0.00,WUHU21636XXSP,2013-09-05 17:40:00,
2013-09-05 19:45:00,73.0,58.5,30.07,ESE,113,0.0,0.0,60,0.00,,,0.00,WUHU21636XXSP,2013-09-05 17:45:00,
2013-09-05 19:50:00,73.0,58.3,30.06,ESE,112,0.0,0.0,60,0.00,CLR,,0.00,WeatherDisplay:10.37,2013-09-05 17:50:00,
2013-09-05 19:55:00,72.1,58.6,30.07,SE,135,0.0,0.0,62,0.00,,,0.00,WUHU21636XXSP,2013-09-05 17:55:00,
2013-09-05 20:00:00,71.4,57.7,30.07,ESE,123,0.0,0.0,62,0.00,CLR,,0.00,WeatherDisplay:10.37,2013-09-05 18:00:00,
2013-09-05 20:05:00,70.9,57.9,30.08,SE,135,0.0,0.0,63,0.00,,,0.00,WUHU21636XXSP,2013-09-05 18:05:00,
2013-09-05 20:10:00,70.5,57.9,30.08,SE,135,0.0,0.0,64,0.00,,,0.00,WUHU21636XXSP,2013-09-05 18:10:00,
2013-09-05 20:11:00,70.5,57.8,30.07,SE,135,0.0,0.0,64,0.00,CLR,,0.00,WeatherDisplay:10.37,2013-09-05 18:11:00,
2013-09-05 20:15:00,70.2,57.6,30.08,SE,135,0.0,0.0,64,0.00,,,0.00,WUHU21636XXSP,2013-09-05 18:15:00,
2013-09-05 20:20:00,69.4,57.2,30.07,SE,135,0.0,0.0,65,0.00,CLR,,0.00,WeatherDisplay:10.37,2013-09-05 18:20:00,
2013-09-05 20:25:00,69.1,57.0,30.08,SE,135,0.0,0.0,65,0.00,,,0.00,WUHU21636XXSP,2013-09-05 18:25:00,
2013-09-05 20:30:00,68.7,56.9,30.07,SE,135,0.0,0.0,66,0.00,CLR,,0.00,WeatherDisplay:10.37,2013-09-05 18:30:00,
2013-09-05 20:35:00,68.4,57.2,30.08,SE,135,0.0,0.0,67,0.00,,,0.00,WUHU21636XXSP,2013-09-05 18:35:00,
2013-09-05 20:40:00,67.8,57.0,30.08,SE,135,0.0,0.0,68,0.00,,,0.00,WUHU21636XXSP,2013-09-05 18:40:00,
2013-09-05 20:41:00,67.8,56.9,30.07,SE,135,0.0,0.0,68,0.00,CLR,,0.00,WeatherDisplay:10.37,2013-09-05 18:41:00,
2013-09-05 20:45:00,67.6,57.2,30.08,SE,135,0.0,0.0,69,0.00,,,0.00,WUHU21636XXSP,2013-09-05 18:45:00,
2013-09-05 20:50:00,67.6,57.1,30.07,SE,135,0.0,0.0,69,0.00,CLR,,0.00,WeatherDisplay:10.37,2013-09-05 18:50:00,
2013-09-05 20:55:00,66.9,57.0,30.08,SE,135,0.0,0.0,70,0.00,,,0.00,WUHU21636XXSP,2013-09-05 18:55:00,
2013-09-05 21:00:00,66.7,57.0,30.07,SE,135,0.0,0.0,71,0.00,CLR,,0.00,WeatherDisplay:10.37,2013-09-05 19:00:00,
2013-09-05 21:05:00,66.4,56.9,30.08,SE,135,0.0,0.0,71,0.00,,,0.00,WUHU21636XXSP,2013-09-05 19:05:00,
2013-09-05 21:10:00,66.0,56.7,30.07,SE,135,0.0,0.0,72,0.00,CLR,,0.00,WeatherDisplay:10.37,2013-09-05 19:10:00,
2013-09-05 21:15:00,65.8,57.0,30.08,SE,135,0.0,0.0,73,0.00,,,0.00,WUHU21636XXSP,2013-09-05 19:15:00,
2013-09-05 21:20:00,65.3,56.8,30.07,SE,135,0.0,0.0,74,0.00,CLR,,0.00,WeatherDisplay:10.37,2013-09-05 19:20:00,
2013-09-05 21:25:00,65.1,56.7,30.08,SE,135,0.0,0.0,74,0.00,,,0.00,WUHU21636XXSP,2013-09-05 19:25:00,
2013-09-05 21:30:00,65.1,56.6,30.07,SE,135,0.0,0.0,74,0.00,CLR,,0.00,WeatherDisplay:10.37,2013-09-05 19:30:00,
2013-09-05 21:35:00,64.8,56.8,30.08,SE,135,0.0,0.0,75,0.00,,,0.00,WUHU21636XXSP,2013-09-05 19:35:00,
2013-09-05 21:40:00,64.6,56.6,30.08,SE,135,0.0,0.0,75,0.00,,,0.00,WUHU21636XXSP,2013-09-05 19:40:00,
2013-09-05 21:41:00,64.8,56.6,30.07,SE,135,0.0,0.0,75,0.00,CLR,,0.00,WeatherDisplay:10.37,2013-09-05 19:41:00,
2013-09-05 21:45:00,64.2,56.6,30.09,SE,135,0.0,0.0,76,0.00,,,0.00,WUHU21636XXSP,2013-09-05 19:45:00,
2013-09-05 21:50:00,64.0,56.3,30.07,SE,135,0.0,0.0,76,0.00,CLR,,0.00,WeatherDisplay:10.37,2013-09-05 19:50:00,
2013-09-05 21:55:00,63.9,56.6,30.08,SE,135,0.0,0.0,77,0.00,,,0.00,WUHU21636XXSP,2013-09-05 19:55:00,
2013-09-05 22:00:00,63.5,56.3,30.08,SE,135,0.0,0.0,77,0.00,,,0.00,WUHU21636XXSP,2013-09-05 20:00:00,
2013-09-05 22:01:00,63.5,56.2,30.07,SE,135,0.0,0.0,77,0.00,CLR,,0.00,WeatherDisplay:10.37,2013-09-05 20:01:00,
2013-09-05 22:05:00,63.3,56.4,30.09,SE,135,0.0,0.0,78,0.00,,,0.00,WUHU21636XXSP,2013-09-05 20:05:00,
2013-09-05 22:10:00,63.1,56.2,30.09,SE,135,0.0,0.0,78,0.00,,,0.00,WUHU21636XXSP,2013-09-05 20:10:00,
2013-09-05 22:11:00,63.3,56.3,30.08,SE,135,0.0,0.0,78,0.00,CLR,,0.00,WeatherDisplay:10.37,2013-09-05 20:11:00,
2013-09-05 22:15:00,63.0,56.1,30.09,SE,135,0.0,0.0,78,0.00,,,0.00,WUHU21636XXSP,2013-09-05 20:15:00,
2013-09-05 22:20:00,62.8,55.8,30.08,SE,135,0.0,0.0,78,0.00,CLR,,0.00,WeatherDisplay:10.37,2013-09-05 20:20:00,
2013-09-05 22:25:00,62.4,55.9,30.09,SSE,158,0.0,0.0,79,0.00,,,0.00,WUHU21636XXSP,2013-09-05 20:25:00,
2013-09-05 22:30:00,62.2,55.6,30.08,SSE,153,0.0,0.0,79,0.00,CLR,,0.00,WeatherDisplay:10.37,2013-09-05 20:30:00,
2013-09-05 22:35:00,62.2,56.0,30.09,WNW,293,0.0,0.0,80,0.00,,,0.00,WUHU21636XXSP,2013-09-05 20:35:00,
2013-09-05 22:40:00,62.1,56.3,30.09,WNW,293,0.0,0.0,81,0.00,,,0.00,WUHU21636XXSP,2013-09-05 20:40:00,
2013-09-05 22:41:00,62.2,56.0,30.08,WSW,258,0.0,0.0,80,0.00,CLR,,0.00,WeatherDisplay:10.37,2013-09-05 20:41:00,
2013-09-05 22:45:00,61.9,56.1,30.09,WNW,293,0.0,0.0,81,0.00,,,0.00,WUHU21636XXSP,2013-09-05 20:45:00,
2013-09-05 22:50:00,61.9,56.3,30.08,WNW,292,0.0,0.0,82,0.00,CLR,,0.00,WeatherDisplay:10.37,2013-09-05 20:50:00,
2013-09-05 22:55:00,61.7,56.2,30.09,WNW,293,0.0,0.0,82,0.00,,,0.00,WUHU21636XXSP,2013-09-05 20:55:00,
2013-09-05 23:00:00,61.5,56.0,30.08,WNW,292,0.0,0.0,82,0.00,CLR,,0.00,WeatherDisplay:10.37,2013-09-05 21:00:00,
2013-09-05 23:05:00,61.3,56.1,30.09,WNW,293,0.0,0.0,83,0.00,,,0.00,WUHU21636XXSP,2013-09-05 21:05:00,
2013-09-05 23:10:00,61.3,56.1,30.09,WNW,293,0.0,0.0,83,0.00,,,0.00,WUHU21636XXSP,2013-09-05 21:10:00,
2013-09-05 23:11:00,61.3,56.1,30.08,WNW,292,0.0,0.0,83,0.00,CLR,,0.00,WeatherDisplay:10.37,2013-09-05 21:11:00,
2013-09-05 23:15:00,61.3,56.1,30.08,WNW,293,0.0,0.0,83,0.00,,,0.00,WUHU21636XXSP,2013-09-05 21:15:00,
2013-09-05 23:20:00,61.2,56.0,30.08,WNW,292,0.0,0.0,83,0.00,CLR,,0.00,WeatherDisplay:10.37,2013-09-05 21:20:00,
2013-09-05 23:25:00,61.0,56.1,30.09,WNW,293,0.0,0.0,84,0.00,,,0.00,WUHU21636XXSP,2013-09-05 21:25:00,
2013-09-05 23:30:00,61.0,56.1,30.07,WNW,292,0.0,0.0,84,0.00,CLR,,0.00,WeatherDisplay:10.37,2013-09-05 21:30:00,
2013-09-05 23:35:00,61.0,56.1,30.08,WNW,293,0.0,0.0,84,0.00,,,0.00,WUHU21636XXSP,2013-09-05 21:35:00,
2013-09-05 23:40:00,61.0,56.1,30.07,WNW,292,0.0,0.0,84,0.00,CLR,,0.00,WeatherDisplay:10.37,2013-09-05 21:40:00,
2013-09-05 23:45:00,60.8,56.0,30.08,WNW,293,0.0,0.0,84,0.00,,,0.00,WUHU21636XXSP,2013-09-05 21:45:00,
2013-09-05 23:50:00,60.8,55.9,30.07,WNW,292,0.0,0.0,84,0.00,CLR,,0.00,WeatherDisplay:10.37,2013-09-05 21:50:00,
2013-09-05 23:55:00,60.8,56.0,30.08,WNW,293,0.0,0.0,84,0.00,,,0.00,WUHU21636XXSP,2013-09-05 21:55:00,